createdAt,value
2023-03-05T00:00:03.187Z,29.70
2023-03-05T00:02:45.837Z,20.65
2023-03-05T00:05:18.534Z,28.60
2023-03-05T00:07:50.904Z,35.15
2023-03-05T00:10:23.281Z,24.83
2023-03-05T00:12:56.295Z,26.20
2023-03-05T00:15:28.794Z,27.38
2023-03-05T00:18:01.514Z,34.63
2023-03-05T00:20:40.971Z,36.38
2023-03-05T00:23:13.574Z,24.33
2023-03-05T00:25:46.030Z,30.73
2023-03-05T00:28:19.310Z,29.20
2023-03-05T00:30:51.710Z,30.85
2023-03-05T00:33:24.160Z,27.75
2023-03-05T00:35:57.973Z,35.00
2023-03-05T00:38:30.395Z,35.33
2023-03-05T00:41:02.866Z,26.58
2023-03-05T00:43:35.898Z,41.15
2023-03-05T00:46:08.349Z,37.47
2023-03-05T00:48:40.717Z,35.00
2023-03-05T00:51:13.148Z,28.63
2023-03-05T00:53:45.557Z,26.27
2023-03-05T00:56:17.975Z,24.92
2023-03-05T00:58:52.555Z,26.30
2023-03-05T01:01:25.035Z,25.33
2023-03-05T01:03:58.901Z,30.23
2023-03-05T01:06:31.274Z,33.47
2023-03-05T01:09:03.770Z,40.95
2023-03-05T01:11:36.206Z,34.03
2023-03-05T01:14:09.485Z,24.95
2023-03-05T01:16:41.933Z,29.42
2023-03-05T01:19:15.730Z,28.35
2023-03-05T01:21:48.521Z,23.83
2023-03-05T01:24:21.894Z,29.52
2023-03-05T01:26:54.215Z,24.83
2023-03-05T01:29:27.539Z,34.63
2023-03-05T01:32:01.597Z,21.92
2023-03-05T01:34:35.637Z,23.95
2023-03-05T01:37:08.054Z,33.25
2023-03-05T01:39:40.468Z,28.70
2023-03-05T01:42:12.875Z,23.75
2023-03-05T01:45:01.058Z,28.15
2023-03-05T01:47:33.495Z,20.30
2023-03-05T01:50:09.080Z,29.77
2023-03-05T01:52:46.410Z,29.10
2023-03-05T01:55:22.595Z,22.40
2023-03-05T01:57:59.895Z,28.27
2023-03-05T02:00:37.410Z,26.65
2023-03-05T02:03:12.163Z,23.95
2023-03-05T02:05:44.501Z,30.88
2023-03-05T02:08:19.078Z,30.02
2023-03-05T02:10:54.555Z,23.38
2023-03-05T02:13:32.487Z,24.52
2023-03-05T02:16:07.052Z,24.55
2023-03-05T02:18:39.419Z,25.50
2023-03-05T02:21:13.325Z,24.88
2023-03-05T02:23:46.546Z,29.83
2023-03-05T02:26:18.823Z,31.10
2023-03-05T02:28:56.664Z,28.00
2023-03-05T02:31:30.431Z,25.23
2023-03-05T02:34:03.139Z,37.90
2023-03-05T02:36:36.164Z,29.88
2023-03-05T02:39:09.364Z,24.73
2023-03-05T02:41:42.097Z,27.42
2023-03-05T02:44:14.564Z,35.90
2023-03-05T02:46:47.117Z,34.75
2023-03-05T02:49:19.412Z,34.85
2023-03-05T02:51:52.508Z,32.20
2023-03-05T02:54:25.065Z,29.30
2023-03-05T02:56:57.370Z,28.85
2023-03-05T02:59:30.001Z,26.85
2023-03-05T03:02:02.779Z,28.00
2023-03-05T03:04:35.386Z,27.52
2023-03-05T03:07:08.419Z,22.05
2023-03-05T03:09:42.100Z,32.92
2023-03-05T03:12:14.762Z,19.50
2023-03-05T03:14:47.113Z,29.80
2023-03-05T03:17:19.825Z,27.30
2023-03-05T03:19:52.389Z,26.50
2023-03-05T03:22:25.480Z,30.85
2023-03-05T03:24:57.899Z,29.70
2023-03-05T03:27:30.466Z,30.02
2023-03-05T03:30:04.193Z,26.10
2023-03-05T03:32:37.020Z,27.27
2023-03-05T03:35:10.515Z,32.13
2023-03-05T03:37:43.721Z,30.63
2023-03-05T03:40:16.483Z,21.90
2023-03-05T03:42:51.402Z,25.80
2023-03-05T03:45:23.967Z,17.95
2023-03-05T03:47:56.449Z,20.15
2023-03-05T03:50:28.868Z,20.92
2023-03-05T03:53:02.177Z,20.48
2023-03-05T03:55:35.254Z,17.55
2023-03-05T03:58:07.709Z,25.05
2023-03-05T04:00:40.935Z,21.90
2023-03-05T04:03:13.245Z,14.55
2023-03-05T04:05:45.654Z,19.50
2023-03-05T04:08:18.828Z,16.77
2023-03-05T04:10:51.378Z,18.20
2023-03-05T04:13:23.800Z,18.77
2023-03-05T04:15:56.616Z,16.98
2023-03-05T04:18:31.163Z,19.35
2023-03-05T04:21:05.171Z,17.23
2023-03-05T04:23:38.336Z,18.98
2023-03-05T04:26:10.995Z,25.30
2023-03-05T04:28:43.412Z,24.38
2023-03-05T04:31:16.590Z,13.77
2023-03-05T04:33:48.896Z,30.25
2023-03-05T04:36:21.411Z,23.75
2023-03-05T04:38:54.470Z,29.27
2023-03-05T04:41:26.931Z,24.95
2023-03-05T04:43:59.310Z,18.33
2023-03-05T04:46:31.702Z,19.20
2023-03-05T04:49:04.083Z,20.23
2023-03-05T04:51:36.496Z,14.20
2023-03-05T04:54:09.418Z,15.77
2023-03-05T04:56:41.727Z,22.35
2023-03-05T04:59:14.010Z,14.65
2023-03-05T05:01:46.274Z,17.83
2023-03-05T05:04:18.699Z,18.58
2023-03-05T05:06:54.189Z,15.65
2023-03-05T05:09:27.339Z,30.20
2023-03-05T05:11:59.647Z,22.33
2023-03-05T05:14:33.600Z,16.05
2023-03-05T05:17:06.006Z,16.55
2023-03-05T05:19:38.388Z,23.75
2023-03-05T05:22:10.738Z,16.60
2023-03-05T05:24:43.856Z,17.67
2023-03-05T05:27:16.182Z,21.58
2023-03-05T05:29:49.722Z,23.40
2023-03-05T05:32:23.607Z,16.35
2023-03-05T05:34:56.503Z,10.52
2023-03-05T05:37:29.579Z,18.80
2023-03-05T05:40:05.221Z,12.32
2023-03-05T05:42:37.883Z,16.88
2023-03-05T05:45:10.925Z,17.88
2023-03-05T05:47:43.198Z,15.35
2023-03-05T05:50:15.947Z,14.45
2023-03-05T05:52:48.377Z,23.08
2023-03-05T05:55:21.502Z,15.45
2023-03-05T05:57:54.088Z,20.83
2023-03-05T06:00:26.506Z,10.82
2023-03-05T06:02:58.947Z,17.38
2023-03-05T06:05:31.434Z,32.80
2023-03-05T06:08:04.169Z,19.05
2023-03-05T06:10:37.108Z,18.45
2023-03-05T06:13:09.476Z,34.33
2023-03-05T06:15:41.940Z,33.88
2023-03-05T06:18:14.255Z,16.40
2023-03-05T06:20:54.074Z,12.98
2023-03-05T06:23:27.345Z,16.70
2023-03-05T06:26:02.187Z,12.35
2023-03-05T06:28:35.433Z,13.95
2023-03-05T06:31:10.388Z,14.38
2023-03-05T06:33:43.449Z,17.77
2023-03-05T06:36:18.557Z,16.13
2023-03-05T06:38:53.193Z,16.35
2023-03-05T06:41:27.984Z,13.93
2023-03-05T06:44:02.501Z,15.43
2023-03-05T06:46:36.924Z,13.27
2023-03-05T06:49:11.023Z,12.48
2023-03-05T06:51:43.338Z,8.90
2023-03-05T06:54:17.210Z,15.27
2023-03-05T06:56:50.450Z,12.25
2023-03-05T06:59:22.975Z,23.23
2023-03-05T07:01:55.366Z,11.57
2023-03-05T07:04:27.680Z,14.20
2023-03-05T07:07:00.413Z,21.58
2023-03-05T07:09:32.685Z,25.20
2023-03-05T07:12:06.844Z,13.50
2023-03-05T07:14:39.395Z,17.20
2023-03-05T07:17:14.563Z,16.70
2023-03-05T07:19:46.888Z,16.73
2023-03-05T07:22:19.271Z,17.20
2023-03-05T07:24:51.528Z,14.10
2023-03-05T07:27:25.052Z,15.32
2023-03-05T07:29:57.468Z,13.88
2023-03-05T07:32:29.939Z,10.70
2023-03-05T07:35:02.619Z,14.82
2023-03-05T07:37:35.001Z,15.50
2023-03-05T07:40:08.604Z,17.63
2023-03-05T07:42:41.762Z,21.60
2023-03-05T07:45:20.776Z,20.77
2023-03-05T07:47:53.085Z,27.90
2023-03-05T07:50:25.553Z,25.70
2023-03-05T07:52:57.867Z,15.60
2023-03-05T07:55:30.188Z,23.15
2023-03-05T07:58:03.199Z,21.63
2023-03-05T08:00:35.518Z,19.35
2023-03-05T08:03:07.875Z,24.50
2023-03-05T08:05:40.960Z,19.38
2023-03-05T08:08:13.249Z,19.08
2023-03-05T08:10:45.817Z,17.42
2023-03-05T08:13:18.809Z,15.18
2023-03-05T08:15:51.169Z,14.55
2023-03-05T08:18:23.535Z,18.02
2023-03-05T08:20:55.869Z,16.23
2023-03-05T08:23:28.498Z,26.38
2023-03-05T08:26:00.918Z,18.98
2023-03-05T08:28:34.498Z,20.25
2023-03-05T08:31:09.765Z,19.50
2023-03-05T08:33:42.358Z,20.35
2023-03-05T08:36:14.622Z,30.83
2023-03-05T08:38:47.872Z,12.60
2023-03-05T08:41:20.321Z,18.63
2023-03-05T08:43:53.310Z,19.30
2023-03-05T08:46:25.804Z,17.15
2023-03-05T08:48:58.356Z,19.85
2023-03-05T08:51:30.715Z,20.88
2023-03-05T08:54:06.206Z,18.92
2023-03-05T08:56:38.513Z,22.13
2023-03-05T08:59:13.321Z,22.42
2023-03-05T09:01:46.053Z,24.23
2023-03-05T09:04:18.498Z,21.48
2023-03-05T09:06:50.819Z,22.73
2023-03-05T09:09:24.086Z,27.42
2023-03-05T09:11:57.852Z,17.08
2023-03-05T09:14:30.825Z,22.52
2023-03-05T09:17:03.147Z,23.67
2023-03-05T09:19:35.496Z,17.67
2023-03-05T09:22:07.843Z,21.20
2023-03-05T09:24:40.161Z,17.63
2023-03-05T09:27:12.464Z,17.98
2023-03-05T09:29:45.682Z,20.77
2023-03-05T09:32:18.124Z,28.30
2023-03-05T09:34:50.479Z,24.25
2023-03-05T09:37:23.013Z,17.15
2023-03-05T09:39:55.495Z,15.73
2023-03-05T09:42:53.852Z,18.23
2023-03-05T09:45:30.371Z,21.63
2023-03-05T09:48:15.256Z,18.48
2023-03-05T09:50:51.157Z,15.73
2023-03-05T09:53:35.666Z,22.02
2023-03-05T09:56:12.018Z,21.35
2023-03-05T09:58:48.159Z,27.58
2023-03-05T10:01:23.581Z,32.35
2023-03-05T10:03:59.390Z,22.90
2023-03-05T10:06:33.938Z,19.95
2023-03-05T10:09:12.674Z,17.45
2023-03-05T10:11:50.787Z,17.42
2023-03-05T10:14:27.614Z,32.00
2023-03-05T10:17:19.000Z,19.48
2023-03-05T10:20:15.118Z,19.63
2023-03-05T10:23:03.453Z,18.58
2023-03-05T10:25:52.651Z,18.38
2023-03-05T10:28:33.589Z,16.63
2023-03-05T10:31:36.638Z,16.17
2023-03-05T10:34:27.271Z,17.17
2023-03-05T10:37:17.964Z,20.20
2023-03-05T10:40:00.329Z,24.67
2023-03-05T10:42:40.489Z,28.02
2023-03-05T10:47:52.193Z,21.58
2023-03-05T10:50:28.526Z,20.23
2023-03-05T10:53:13.371Z,18.83
2023-03-05T10:55:45.669Z,15.80
2023-03-05T10:58:18.074Z,14.32
2023-03-05T11:01:02.080Z,17.73
2023-03-05T11:03:47.781Z,13.15
2023-03-05T11:06:29.605Z,12.70
2023-03-05T11:09:19.837Z,18.83
2023-03-05T11:12:10.856Z,27.20
2023-03-05T11:14:45.164Z,25.75
2023-03-05T11:17:30.842Z,24.65
2023-03-05T11:20:34.222Z,23.50
2023-03-05T11:23:11.798Z,27.25
2023-03-05T11:25:53.690Z,20.65
2023-03-05T11:28:33.401Z,17.77
2023-03-05T11:31:20.253Z,16.13
2023-03-05T11:33:58.115Z,30.90
2023-03-05T11:36:32.737Z,19.77
2023-03-05T11:39:16.558Z,17.15
2023-03-05T11:41:51.395Z,16.00
2023-03-05T11:44:26.835Z,15.48
2023-03-05T11:47:03.154Z,13.88
2023-03-05T11:49:43.038Z,12.85
2023-03-05T11:52:21.713Z,15.85
2023-03-05T11:55:02.714Z,12.93
2023-03-05T11:57:43.268Z,13.68
2023-03-05T12:00:18.787Z,19.77
2023-03-05T12:02:54.490Z,19.63
2023-03-05T12:05:28.359Z,19.00
2023-03-05T12:08:02.203Z,14.43
2023-03-05T12:10:35.397Z,17.13
2023-03-05T12:13:19.494Z,17.10
2023-03-05T12:16:04.525Z,17.02
2023-03-05T12:18:47.846Z,14.40
2023-03-05T12:21:32.111Z,18.88
2023-03-05T12:24:36.058Z,12.00
2023-03-05T12:27:30.845Z,18.08
2023-03-05T12:30:04.715Z,14.68
2023-03-05T12:32:59.136Z,20.45
2023-03-05T12:35:36.432Z,12.60
2023-03-05T12:38:29.627Z,18.92
2023-03-05T12:41:43.304Z,19.25
2023-03-05T12:44:22.885Z,12.00
2023-03-05T12:47:18.585Z,20.70
2023-03-05T12:49:50.891Z,11.93
2023-03-05T12:52:26.682Z,13.70
2023-03-05T12:55:19.448Z,13.05
2023-03-05T12:57:57.099Z,20.35
2023-03-05T13:00:36.762Z,12.55
2023-03-05T13:05:49.471Z,16.65
2023-03-05T13:08:25.194Z,12.75
2023-03-05T13:11:01.463Z,12.05
2023-03-05T13:13:37.562Z,14.70
2023-03-05T13:16:17.961Z,15.98
2023-03-05T13:18:52.077Z,12.30
2023-03-05T13:21:26.349Z,12.57
2023-03-05T13:24:00.196Z,9.15
2023-03-05T13:26:38.610Z,14.52
2023-03-05T13:29:13.276Z,13.40
2023-03-05T13:31:48.345Z,10.13
2023-03-05T13:34:24.575Z,11.45
2023-03-05T13:37:00.827Z,13.63
2023-03-05T13:39:37.353Z,11.02
2023-03-05T13:42:17.138Z,10.43
2023-03-05T13:47:31.043Z,9.95
2023-03-05T13:50:05.795Z,12.45
2023-03-05T13:52:38.614Z,32.22
2023-03-05T13:55:15.756Z,19.85
2023-03-05T13:57:50.374Z,13.82
2023-03-05T14:00:30.577Z,12.50
2023-03-05T14:03:10.978Z,21.85
2023-03-05T14:05:44.360Z,12.73
2023-03-05T14:08:20.653Z,14.85
2023-03-05T14:10:54.292Z,15.25
2023-03-05T14:13:27.135Z,14.82
2023-03-05T14:16:04.574Z,11.60
2023-03-05T14:18:38.766Z,20.70
2023-03-05T14:21:11.918Z,14.32
2023-03-05T14:23:45.888Z,16.35
2023-03-05T14:26:23.629Z,14.68
2023-03-05T14:28:58.214Z,15.43
2023-03-05T14:31:34.933Z,16.98
2023-03-05T14:34:07.966Z,19.20
2023-03-05T14:36:47.688Z,15.02
2023-03-05T14:39:46.426Z,13.80
2023-03-05T14:42:31.501Z,15.10
2023-03-05T14:45:12.093Z,17.85
2023-03-05T14:47:45.110Z,12.50
2023-03-05T14:50:20.144Z,10.65
2023-03-05T14:52:55.848Z,14.15
2023-03-05T14:55:30.919Z,21.55
2023-03-05T14:58:06.968Z,16.95
2023-03-05T15:00:39.299Z,14.85
2023-03-05T15:03:11.845Z,13.45
2023-03-05T15:05:47.198Z,18.15
2023-03-05T15:08:22.422Z,12.95
2023-03-05T15:10:55.417Z,11.98
2023-03-05T15:13:27.708Z,22.33
2023-03-05T15:16:00.229Z,28.75
2023-03-05T15:18:32.763Z,18.40
2023-03-05T15:21:05.903Z,15.77
2023-03-05T15:23:38.298Z,18.48
2023-03-05T15:26:13.311Z,21.15
2023-03-05T15:28:45.646Z,36.03
2023-03-05T15:31:18.012Z,16.75
2023-03-05T15:33:50.314Z,32.72
2023-03-05T15:36:23.254Z,28.33
2023-03-05T15:38:55.677Z,17.38
2023-03-05T15:41:27.988Z,15.98
2023-03-05T15:44:00.300Z,20.17
2023-03-05T15:46:34.171Z,24.40
2023-03-05T15:49:06.484Z,14.00
2023-03-05T15:51:39.532Z,24.70
2023-03-05T15:54:11.811Z,20.88
2023-03-05T15:56:44.244Z,37.45
2023-03-05T15:59:16.525Z,29.95
2023-03-05T16:01:50.792Z,44.58
2023-03-05T16:04:23.165Z,47.80
2023-03-05T16:06:58.305Z,19.10
2023-03-05T16:09:36.354Z,18.70
2023-03-05T16:12:12.308Z,21.77
2023-03-05T16:14:45.794Z,19.50
2023-03-05T16:17:20.422Z,24.02
2023-03-05T16:19:55.437Z,16.33
2023-03-05T16:22:28.380Z,21.38
2023-03-05T16:25:00.971Z,18.55
2023-03-05T16:27:33.644Z,18.33
2023-03-05T16:30:07.259Z,19.40
2023-03-05T16:32:39.693Z,15.50
2023-03-05T16:35:12.758Z,19.30
2023-03-05T16:37:45.837Z,16.92
2023-03-05T16:40:18.337Z,15.45
2023-03-05T16:42:50.807Z,20.85
2023-03-05T16:45:23.136Z,17.92
2023-03-05T16:47:55.405Z,25.60
2023-03-05T16:50:27.717Z,19.42
2023-03-05T16:53:00.857Z,22.15
2023-03-05T16:55:33.261Z,14.70
2023-03-05T16:58:05.555Z,16.83
2023-03-05T17:00:37.994Z,16.73
2023-03-05T17:03:10.311Z,19.15
2023-03-05T17:05:42.607Z,17.08
2023-03-05T17:08:15.652Z,21.33
2023-03-05T17:10:48.178Z,18.35
2023-03-05T17:13:20.480Z,15.68
2023-03-05T17:15:56.169Z,15.40
2023-03-05T17:18:29.706Z,19.15
2023-03-05T17:21:03.751Z,24.60
2023-03-05T17:23:38.204Z,19.50
2023-03-05T17:26:12.794Z,20.95
2023-03-05T17:28:45.791Z,22.30
2023-03-05T17:31:18.137Z,26.23
2023-03-05T17:33:51.097Z,10.98
2023-03-05T17:36:23.836Z,12.93
2023-03-05T17:38:56.835Z,20.17
2023-03-05T17:41:29.225Z,12.77
2023-03-05T17:44:02.301Z,15.07
2023-03-05T17:46:34.616Z,16.00
2023-03-05T17:49:06.904Z,12.82
2023-03-05T17:51:39.268Z,14.40
2023-03-05T17:54:12.261Z,19.73
2023-03-05T17:56:44.531Z,14.80
2023-03-05T17:59:16.908Z,16.17
2023-03-05T18:01:49.228Z,17.45
2023-03-05T18:04:21.650Z,21.95
2023-03-05T18:06:53.989Z,17.55
2023-03-05T18:09:27.054Z,13.48
2023-03-05T18:11:59.439Z,15.93
2023-03-05T18:14:31.747Z,9.02
2023-03-05T18:17:04.114Z,12.73
2023-03-05T18:19:36.644Z,9.43
2023-03-05T18:22:09.030Z,14.38
2023-03-05T18:24:42.001Z,11.30
2023-03-05T18:27:14.774Z,12.25
2023-03-05T18:29:47.270Z,20.13
2023-03-05T18:32:20.242Z,12.52
2023-03-05T18:34:52.616Z,11.82
2023-03-05T18:37:24.940Z,14.50
2023-03-05T18:39:58.322Z,9.98
2023-03-05T18:42:30.784Z,16.52
2023-03-05T18:45:04.482Z,14.77
2023-03-05T18:47:38.386Z,19.45
2023-03-05T18:50:14.008Z,12.10
2023-03-05T18:52:47.203Z,18.25
2023-03-05T18:55:22.752Z,16.55
2023-03-05T18:57:55.484Z,16.85
2023-03-05T19:00:30.666Z,17.15
2023-03-05T19:03:03.257Z,16.88
2023-03-05T19:05:35.566Z,20.60
2023-03-05T19:08:08.085Z,14.88
2023-03-05T19:10:41.017Z,23.27
2023-03-05T19:13:25.035Z,20.17
2023-03-05T19:15:57.454Z,13.93
2023-03-05T19:18:33.038Z,19.98
2023-03-05T19:21:07.517Z,25.58
2023-03-05T19:23:39.874Z,10.38
2023-03-05T19:26:12.908Z,12.82
2023-03-05T19:28:45.212Z,12.10
2023-03-05T19:31:18.003Z,12.27
2023-03-05T19:33:50.308Z,15.63
2023-03-05T19:36:22.791Z,21.02
2023-03-05T19:38:55.152Z,16.55
2023-03-05T19:41:28.766Z,12.88
2023-03-05T19:44:01.698Z,13.40
2023-03-05T19:46:34.159Z,14.60
2023-03-05T19:49:06.513Z,16.63
2023-03-05T19:51:41.075Z,12.27
2023-03-05T19:54:15.219Z,17.80
2023-03-05T19:56:49.315Z,16.48
2023-03-05T19:59:22.423Z,18.30
2023-03-05T20:01:56.599Z,11.85
2023-03-05T20:04:28.967Z,18.73
2023-03-05T20:07:03.072Z,14.77
2023-03-05T20:09:35.363Z,24.92
2023-03-05T20:12:09.647Z,22.33
2023-03-05T20:14:41.950Z,15.90
2023-03-05T20:17:14.782Z,14.40
2023-03-05T20:19:47.108Z,15.25
2023-03-05T20:22:19.394Z,20.00
2023-03-05T20:24:51.672Z,17.35
2023-03-05T20:27:24.657Z,22.75
2023-03-05T20:29:57.956Z,22.73
2023-03-05T20:32:30.374Z,10.82
2023-03-05T20:35:03.026Z,13.48
2023-03-05T20:37:39.811Z,15.68
2023-03-05T20:40:13.098Z,14.45
2023-03-05T20:42:46.073Z,14.35
2023-03-05T20:45:18.776Z,22.90
2023-03-05T20:47:51.116Z,13.82
2023-03-05T20:50:23.704Z,19.73
2023-03-05T20:52:56.854Z,13.40
2023-03-05T20:55:29.676Z,12.45
2023-03-05T20:58:02.672Z,14.45
2023-03-05T21:00:35.699Z,15.95
2023-03-05T21:03:08.803Z,20.35
2023-03-05T21:05:41.094Z,26.70
2023-03-05T21:08:13.393Z,18.05
2023-03-05T21:10:45.651Z,19.90
2023-03-05T21:13:18.677Z,13.45
2023-03-05T21:15:51.019Z,15.70
2023-03-05T21:18:23.321Z,19.45
2023-03-05T21:20:55.656Z,25.52
2023-03-05T21:23:28.151Z,16.15
2023-03-05T21:26:01.246Z,16.50
2023-03-05T21:28:34.291Z,18.83
2023-03-05T21:31:08.784Z,15.52
2023-03-05T21:33:41.641Z,13.18
2023-03-05T21:36:17.841Z,16.63
2023-03-05T21:38:50.151Z,13.63
2023-03-05T21:41:23.050Z,22.73
2023-03-05T21:43:56.727Z,17.92
2023-03-05T21:46:29.349Z,15.88
2023-03-05T21:49:01.848Z,12.30
2023-03-05T21:51:41.279Z,12.65
2023-03-05T21:54:13.571Z,10.23
2023-03-05T21:56:45.972Z,13.48
2023-03-05T21:59:18.916Z,12.27
2023-03-05T22:01:52.569Z,13.85
2023-03-05T22:04:25.181Z,12.02
2023-03-05T22:06:57.431Z,14.93
2023-03-05T22:09:29.698Z,11.63
2023-03-05T22:12:04.060Z,14.90
2023-03-05T22:14:37.036Z,20.00
2023-03-05T22:17:09.374Z,13.13
2023-03-05T22:19:41.624Z,18.83
2023-03-05T22:22:13.916Z,17.08
2023-03-05T22:24:46.197Z,17.08
2023-03-05T22:27:18.514Z,16.50
2023-03-05T22:29:51.509Z,17.65
2023-03-05T22:32:23.907Z,13.73
2023-03-05T22:34:56.394Z,15.57
2023-03-05T22:37:29.161Z,12.77
2023-03-05T22:40:01.788Z,17.65
2023-03-05T22:42:34.174Z,20.70
2023-03-05T22:45:08.455Z,23.45
2023-03-05T22:47:41.121Z,18.80
2023-03-05T22:50:13.620Z,45.85
2023-03-05T22:52:46.344Z,26.92
2023-03-05T22:55:18.679Z,23.88
2023-03-05T22:57:50.952Z,24.73
2023-03-05T23:00:25.964Z,34.70
2023-03-05T23:02:58.370Z,45.50
2023-03-05T23:05:30.707Z,36.38
2023-03-05T23:08:03.068Z,37.58
2023-03-05T23:10:35.603Z,37.45
2023-03-05T23:13:07.929Z,35.00
2023-03-05T23:15:40.857Z,27.00
2023-03-05T23:18:14.314Z,46.00
2023-03-05T23:20:46.662Z,44.45
2023-03-05T23:23:18.995Z,49.17
2023-03-05T23:25:52.102Z,44.80
2023-03-05T23:28:24.399Z,47.33
2023-03-05T23:30:58.116Z,42.67
2023-03-05T23:33:30.476Z,21.75
2023-03-05T23:36:02.935Z,25.73
2023-03-05T23:38:35.928Z,11.35
2023-03-05T23:41:09.209Z,12.80
2023-03-05T23:43:41.497Z,18.90
2023-03-05T23:46:14.573Z,16.40
2023-03-05T23:48:47.009Z,20.40
2023-03-05T23:51:19.322Z,19.67
2023-03-05T23:53:51.744Z,15.85
2023-03-05T23:56:24.050Z,14.43
2023-03-05T23:58:59.745Z,17.50
